Time;durP1;ratioP1;P1;durP2;ratioP2;P2;SDS_P1;SDS_P2;PMS_P1;PMS_P2;Temp;Humidity;BMP_temperature;BMP_pressure;BME280_temperature;BME280_humidity;BME280_pressure;Samples;Min_cycle;Max_cycle;Signal;HPM_P1;HPM_P2
2022/07/29 00:01:00;;;;;;;4.30;1.00;;;;;;;19.35;79.39;101685.28;5105320;27;20096;-60
2022/07/29 00:03:27;;;;;;;1.60;1.00;;;;;;;19.37;80.55;101679.78;5119952;27;20137;-59
2022/07/29 00:05:53;;;;;;;4.75;1.20;;;;;;;19.34;80.21;101677.50;5109454;27;20081;-58
2022/07/29 00:08:20;;;;;;;3.83;1.30;;;;;;;19.36;80.96;101678.13;5119380;27;20047;-58
2022/07/29 00:10:46;;;;;;;2.78;1.13;;;;;;;19.32;81.02;101676.84;5113278;27;20047;-59
2022/07/29 00:13:13;;;;;;;4.07;1.27;;;;;;;19.26;81.42;101666.94;5113383;27;20047;-59
2022/07/29 00:15:39;;;;;;;5.13;1.40;;;;;;;19.26;81.73;101669.59;5086923;27;20054;-59
2022/07/29 00:18:06;;;;;;;5.38;1.15;;;;;;;19.20;83.33;101665.03;5107222;27;20051;-61
2022/07/29 00:20:32;;;;;;;2.63;1.10;;;;;;;19.17;82.70;101660.91;5121711;27;20047;-59
2022/07/29 00:22:59;;;;;;;4.10;1.30;;;;;;;19.17;82.31;101661.72;5109004;27;20059;-59
2022/07/29 00:25:25;;;;;;;3.28;0.98;;;;;;;19.09;83.54;101667.13;5124855;27;20054;-59
2022/07/29 00:27:52;;;;;;;4.15;1.20;;;;;;;19.06;83.10;101656.03;5106391;27;20070;-59
2022/07/29 00:30:18;;;;;;;3.95;1.10;;;;;;;19.04;83.06;101663.38;5111898;27;20079;-60
2022/07/29 00:32:44;;;;;;;3.72;1.10;;;;;;;19.06;81.56;101654.19;5126751;27;20066;-59
2022/07/29 00:37:59;;;;;;;2.97;1.45;;;;;;;19.12;82.62;101652.63;5123472;27;20043;-60
2022/07/29 00:40:27;;;;;;;1.90;1.02;;;;;;;19.11;83.42;101643.00;5104699;27;20047;-60
2022/07/29 00:42:53;;;;;;;2.85;1.33;;;;;;;19.15;83.00;101646.94;5106623;28;20043;-59
2022/07/29 00:45:21;;;;;;;1.25;1.00;;;;;;;19.10;82.99;101649.34;5111144;27;20055;-59
2022/07/29 00:47:48;;;;;;;3.70;1.00;;;;;;;19.08;84.11;101643.38;5115205;28;20122;-56
2022/07/29 00:50:14;;;;;;;3.40;1.48;;;;;;;19.09;82.51;101647.66;5113203;27;20055;-54
2022/07/29 00:52:42;;;;;;;3.17;1.08;;;;;;;19.07;83.31;101637.25;5121145;28;20578;-59
2022/07/29 00:55:12;;;;;;;2.10;1.10;;;;;;;19.05;84.49;101641.06;5110462;28;20458;-59
2022/07/29 00:57:39;;;;;;;5.15;1.40;;;;;;;19.01;84.68;101637.94;5101613;28;20653;-60
2022/07/29 01:00:09;;;;;;;1.50;0.90;;;;;;;19.09;83.20;101637.03;5109251;28;20067;-59
2022/07/29 01:02:35;;;;;;;5.32;1.60;;;;;;;19.04;83.96;101631.47;5108561;27;20052;-59
2022/07/29 01:05:04;;;;;;;3.13;1.55;;;;;;;19.03;83.56;101640.44;5130253;27;20187;-58
2022/07/29 01:07:36;;;;;;;4.20;1.40;;;;;;;18.99;84.39;101633.81;5105524;27;20052;-59
2022/07/29 01:10:04;;;;;;;6.30;1.38;;;;;;;19.02;85.18;101638.78;5118180;27;20048;-59
2022/07/29 01:12:33;;;;;;;4.28;1.50;;;;;;;19.00;85.40;101638.97;5122389;27;20058;-59
2022/07/29 01:15:01;;;;;;;3.55;1.40;;;;;;;19.00;84.66;101636.31;5107416;27;20066;-59
2022/07/29 01:17:31;;;;;;;5.22;1.52;;;;;;;18.99;85.51;101629.31;5128086;27;20062;-60
2022/07/29 01:20:28;;;;;;;2.67;1.40;;;;;;;19.04;84.74;101634.94;5117080;27;20043;-59
2022/07/29 01:23:05;;;;;;;8.02;1.63;;;;;;;19.04;85.11;101626.13;5118184;27;20170;-58
2022/07/29 01:26:00;;;;;;;7.93;1.70;;;;;;;19.06;85.42;101626.78;5115090;27;20112;-60
2022/07/29 01:28:46;;;;;;;2.80;1.35;;;;;;;19.00;85.70;101622.19;5113074;27;20070;-59
2022/07/29 01:31:20;;;;;;;4.68;1.80;;;;;;;18.99;84.81;101624.00;5109920;27;20058;-59
2022/07/29 01:34:00;;;;;;;3.45;1.25;;;;;;;18.98;85.02;101627.69;5112428;27;20071;-60
2022/07/29 01:37:02;;;;;;;5.22;1.70;;;;;;;18.99;85.63;101624.00;5104916;27;20158;-59
2022/07/29 01:39:32;;;;;;;4.82;1.58;;;;;;;18.93;86.16;101632.72;5075683;27;20053;-59
2022/07/29 01:42:29;;;;;;;8.25;2.00;;;;;;;18.92;86.75;101633.75;5111593;27;20509;-58
2022/07/29 01:45:14;;;;;;;5.28;2.10;;;;;;;18.89;85.43;101642.88;5130065;27;20593;-61
2022/07/29 01:47:46;;;;;;;6.13;1.90;;;;;;;18.88;84.89;101649.22;5102078;27;20039;-58
2022/07/29 01:50:17;;;;;;;3.85;2.10;;;;;;;18.85;86.08;101641.59;5115912;27;20071;-59
2022/07/29 01:52:49;;;;;;;5.13;2.17;;;;;;;18.87;85.67;101646.75;5114363;27;20043;-59
2022/07/29 01:55:19;;;;;;;4.53;1.88;;;;;;;18.81;86.85;101637.66;5120176;27;20065;-60
2022/07/29 01:57:48;;;;;;;9.38;1.98;;;;;;;18.82;86.88;101641.13;5117135;27;20043;-59
2022/07/29 02:00:15;;;;;;;4.15;1.67;;;;;;;18.82;85.02;101641.97;5112903;27;20051;-57
2022/07/29 02:02:45;;;;;;;5.00;1.63;;;;;;;18.81;86.21;101648.28;5123952;27;20043;-59
2022/07/29 02:05:15;;;;;;;5.03;1.80;;;;;;;18.77;88.85;101662.91;5108897;27;20380;-59
2022/07/29 02:07:44;;;;;;;3.97;1.80;;;;;;;18.73;92.01;101662.44;5109686;27;20436;-58
2022/07/29 02:10:13;;;;;;;3.65;1.70;;;;;;;18.68;91.96;101664.84;5101476;27;20039;-60
2022/07/29 02:12:42;;;;;;;7.80;1.75;;;;;;;18.68;93.50;101664.84;5113774;27;20204;-59
2022/07/29 02:15:16;;;;;;;4.70;1.70;;;;;;;18.69;92.88;101670.97;5128699;27;20054;-60
2022/07/29 02:17:54;;;;;;;6.13;1.77;;;;;;;18.71;91.60;101674.25;5117815;27;20044;-59
2022/07/29 02:20:24;;;;;;;4.18;1.70;;;;;;;18.60;92.53;101672.84;5100235;27;20051;-59
2022/07/29 02:22:53;;;;;;;5.45;1.80;;;;;;;18.57;93.07;101682.00;5111727;27;20039;-59
2022/07/29 02:25:22;;;;;;;2.65;1.67;;;;;;;18.55;93.82;101673.38;5111145;27;20055;-60
2022/07/29 02:27:51;;;;;;;4.95;1.88;;;;;;;18.53;94.25;101678.06;5116150;27;20054;-60
2022/07/29 02:30:21;;;;;;;3.88;1.70;;;;;;;18.54;95.27;101670.91;5124546;27;20051;-59
2022/07/29 02:32:49;;;;;;;5.68;1.80;;;;;;;18.52;99.51;101667.59;5113764;27;20590;-59
2022/07/29 02:35:16;;;;;;;5.05;1.90;;;;;;;18.47;100.00;101668.16;5121012;27;20054;-61
2022/07/29 02:37:45;;;;;;;5.77;1.93;;;;;;;18.46;100.00;101669.13;5129084;27;20043;-60
2022/07/29 02:40:14;;;;;;;4.30;2.08;;;;;;;18.44;100.00;101662.34;5121561;27;20134;-59
2022/07/29 02:42:43;;;;;;;6.15;1.83;;;;;;;18.41;100.00;101665.38;5118250;27;20474;-58
2022/07/29 02:45:10;;;;;;;4.07;1.98;;;;;;;18.35;100.00;101661.59;5104180;27;20054;-58
2022/07/29 02:47:43;;;;;;;6.00;2.03;;;;;;;18.33;100.00;101658.31;5119566;27;20052;-61
2022/07/29 02:50:17;;;;;;;5.95;2.40;;;;;;;18.28;100.00;101650.84;5115588;27;20058;-60
2022/07/29 02:52:47;;;;;;;4.07;2.20;;;;;;;18.26;100.00;101660.00;5122737;27;20047;-60
2022/07/29 02:55:25;;;;;;;3.90;2.22;;;;;;;18.22;100.00;101648.09;5123913;27;20668;-58
2022/07/29 02:57:59;;;;;;;4.03;1.85;;;;;;;18.21;100.00;101643.75;5114299;27;20415;-60
2022/07/29 03:00:29;;;;;;;3.17;1.88;;;;;;;18.18;100.00;101644.94;5117132;27;20050;-60
2022/07/29 03:02:59;;;;;;;7.28;1.92;;;;;;;18.17;100.00;101645.97;5115714;27;20482;-60
2022/07/29 03:05:26;;;;;;;4.93;1.92;;;;;;;18.14;100.00;101635.69;5120413;27;20131;-58
2022/07/29 03:08:00;;;;;;;4.40;1.60;;;;;;;18.12;100.00;101629.72;5113437;27;20051;-59
2022/07/29 03:10:27;;;;;;;6.47;2.20;;;;;;;18.06;100.00;101625.94;5119002;27;20043;-56
2022/07/29 03:12:55;;;;;;;3.45;1.90;;;;;;;18.06;100.00;101615.31;5112970;27;20047;-59
2022/07/29 03:15:22;;;;;;;5.93;2.30;;;;;;;18.01;100.00;101612.38;5111883;27;20051;-57
2022/07/29 03:17:51;;;;;;;5.13;2.10;;;;;;;17.95;100.00;101608.63;5127539;27;20089;-59
2022/07/29 03:20:18;;;;;;;9.93;2.55;;;;;;;17.92;100.00;101601.00;5112215;27;20047;-60
2022/07/29 03:22:46;;;;;;;4.90;2.17;;;;;;;17.94;100.00;101591.03;5126516;27;20411;-59
2022/07/29 03:25:15;;;;;;;5.55;2.33;;;;;;;17.89;100.00;101592.53;5107657;27;20066;-60
2022/07/29 03:27:42;;;;;;;5.72;2.28;;;;;;;17.85;100.00;101585.94;5118012;27;20061;-59
2022/07/29 03:30:10;;;;;;;4.53;2.42;;;;;;;17.79;100.00;101584.78;5127670;27;20495;-59
2022/07/29 03:32:37;;;;;;;4.82;2.47;;;;;;;17.73;100.00;101581.00;5109703;27;20058;-59
2022/07/29 03:35:06;;;;;;;7.10;3.00;;;;;;;17.66;100.00;101580.06;5125190;27;20449;-58
2022/07/29 03:37:33;;;;;;;6.43;2.65;;;;;;;17.59;100.00;101595.00;5110957;27;20062;-60
2022/07/29 03:40:02;;;;;;;6.30;2.63;;;;;;;17.60;100.00;101588.69;5121174;27;20047;-59
2022/07/29 03:42:32;;;;;;;5.25;2.58;;;;;;;17.51;100.00;101587.91;5099065;27;20074;-60
2022/07/29 03:45:03;;;;;;;4.07;2.40;;;;;;;17.45;100.00;101585.97;5117732;27;20097;-61
2022/07/29 03:47:31;;;;;;;4.45;2.63;;;;;;;17.39;100.00;101570.75;5114718;27;20710;-59
2022/07/29 03:50:19;;;;;;;4.45;2.28;;;;;;;17.32;100.00;101567.94;5102917;27;20051;-60
2022/07/29 03:52:46;;;;;;;3.85;2.17;;;;;;;17.27;100.00;101570.31;5114628;27;20567;-60
2022/07/29 03:55:13;;;;;;;6.55;2.70;;;;;;;17.23;100.00;101565.50;5105984;27;20047;-60
2022/07/29 03:57:40;;;;;;;3.30;2.10;;;;;;;17.20;100.00;101564.84;5120189;27;20047;-60
2022/07/29 04:00:08;;;;;;;6.22;2.78;;;;;;;17.19;100.00;101573.81;5120468;27;20057;-60
2022/07/29 04:02:36;;;;;;;7.88;2.63;;;;;;;17.15;100.00;101569.00;5115276;27;20547;-60
2022/07/29 04:05:02;;;;;;;5.13;2.20;;;;;;;17.14;100.00;101568.19;5116585;27;20058;-61
2022/07/29 04:07:29;;;;;;;3.33;2.20;;;;;;;17.13;100.00;101560.41;5118379;27;20053;-59
2022/07/29 04:09:56;;;;;;;5.35;2.92;;;;;;;17.13;100.00;101565.69;5108016;27;20053;-59
2022/07/29 04:12:22;;;;;;;7.13;2.40;;;;;;;17.09;100.00;101559.94;5107160;27;20134;-60
2022/07/29 04:14:49;;;;;;;7.63;2.75;;;;;;;17.09;100.00;101567.03;5118407;27;20395;-56
2022/07/29 04:17:16;;;;;;;7.82;2.83;;;;;;;17.04;100.00;101577.34;5112092;27;20167;-60
2022/07/29 04:19:43;;;;;;;4.43;2.53;;;;;;;17.06;100.00;101589.44;5106378;27;20061;-59
2022/07/29 04:22:09;;;;;;;3.40;2.67;;;;;;;17.05;100.00;101597.53;5120215;27;20058;-60
2022/07/29 04:24:35;;;;;;;4.85;2.70;;;;;;;16.99;100.00;101614.94;5110004;27;20050;-59
2022/07/29 04:27:02;;;;;;;4.95;2.50;;;;;;;16.98;100.00;101619.44;5118641;27;20047;-58
2022/07/29 04:29:28;;;;;;;6.03;2.80;;;;;;;16.90;100.00;101614.16;5109526;27;20087;-58
2022/07/29 04:31:55;;;;;;;6.75;2.75;;;;;;;16.81;100.00;101615.13;5122933;28;20494;-58
2022/07/29 04:34:21;;;;;;;4.35;2.15;;;;;;;16.84;100.00;101606.88;5107955;28;20127;-59
2022/07/29 04:36:53;;;;;;;6.15;2.97;;;;;;;16.93;100.00;101610.31;5127578;28;20047;-60
2022/07/29 04:39:19;;;;;;;4.32;2.58;;;;;;;16.91;100.00;101597.25;5106574;28;20089;-60
2022/07/29 04:41:49;;;;;;;5.22;2.80;;;;;;;16.95;100.00;101600.38;5117512;28;20053;-60
2022/07/29 04:44:17;;;;;;;5.40;2.47;;;;;;;16.96;100.00;101600.22;5122336;28;20043;-59
2022/07/29 04:46:45;;;;;;;4.70;2.50;;;;;;;16.94;100.00;101604.03;5109098;28;20050;-60
2022/07/29 04:49:11;;;;;;;5.50;2.40;;;;;;;16.96;100.00;101600.22;5120570;28;20105;-60
2022/07/29 04:51:38;;;;;;;6.65;2.70;;;;;;;16.92;100.00;101604.22;5111831;28;20700;-60
2022/07/29 04:54:05;;;;;;;6.78;3.13;;;;;;;16.80;100.00;101609.00;5107073;28;20051;-60
2022/07/29 04:56:32;;;;;;;6.40;2.77;;;;;;;16.75;100.00;101603.38;5119202;28;20049;-60
2022/07/29 04:58:58;;;;;;;5.43;2.92;;;;;;;16.79;100.00;101601.22;5113844;28;20053;-60
2022/07/29 05:01:25;;;;;;;5.18;2.92;;;;;;;16.77;100.00;101593.44;5107338;28;20035;-58
2022/07/29 05:03:51;;;;;;;4.90;2.78;;;;;;;16.76;100.00;101610.34;5099454;28;20047;-56
2022/07/29 05:06:25;;;;;;;6.18;2.90;;;;;;;16.76;100.00;101604.22;5110615;28;20071;-57
2022/07/29 05:08:51;;;;;;;5.68;3.28;;;;;;;16.70;100.00;101613.66;5101723;28;20380;-59
2022/07/29 05:11:17;;;;;;;5.18;2.60;;;;;;;16.71;100.00;101604.69;5107363;28;20059;-59
2022/07/29 05:13:48;;;;;;;4.85;2.25;;;;;;;16.73;100.00;101610.66;5114977;28;20586;-59
2022/07/29 05:16:15;;;;;;;3.90;2.63;;;;;;;16.74;100.00;101614.97;5102061;28;20093;-58
2022/07/29 05:18:41;;;;;;;12.52;3.53;;;;;;;16.77;100.00;101614.63;5110330;28;20055;-58
2022/07/29 05:21:08;;;;;;;5.97;3.05;;;;;;;16.79;100.00;101635.66;5106468;28;20559;-59
2022/07/29 05:23:34;;;;;;;4.15;2.63;;;;;;;16.72;100.00;101648.75;5129343;27;20808;-59
2022/07/29 05:26:01;;;;;;;7.50;2.70;;;;;;;16.78;100.00;101644.63;5104131;28;20051;-59
2022/07/29 05:28:28;;;;;;;5.38;2.72;;;;;;;16.76;100.00;101655.38;5103675;27;20082;-59
2022/07/29 05:30:54;;;;;;;6.95;2.63;;;;;;;16.78;100.00;101652.56;5121054;27;20053;-59
2022/07/29 05:33:20;;;;;;;3.72;2.85;;;;;;;16.81;100.00;101652.22;5119046;28;20055;-59
2022/07/29 05:36:05;;;;;;;3.95;2.97;;;;;;;16.81;100.00;101646.91;5115239;28;20051;-59
2022/07/29 05:38:31;;;;;;;3.88;2.88;;;;;;;16.80;100.00;101645.28;5117147;27;20495;-58
2022/07/29 05:40:59;;;;;;;4.95;2.95;;;;;;;16.80;100.00;101653.22;5122931;28;20580;-59
2022/07/29 05:43:29;;;;;;;5.45;3.10;;;;;;;16.82;100.00;101650.41;5100321;28;20418;-59
2022/07/29 05:45:55;;;;;;;4.28;2.58;;;;;;;16.84;100.00;101645.78;5124406;27;20521;-57
2022/07/29 05:48:22;;;;;;;5.43;2.97;;;;;;;16.91;100.00;101642.28;5123297;27;20055;-59
2022/07/29 05:50:49;;;;;;;5.00;2.35;;;;;;;16.93;100.00;101645.59;5120795;27;20383;-59
2022/07/29 05:53:16;;;;;;;4.15;2.50;;;;;;;16.95;100.00;101651.56;5115100;27;20050;-59
2022/07/29 05:55:45;;;;;;;4.88;2.70;;;;;;;17.02;100.00;101654.38;5108210;27;20043;-59
2022/07/29 05:58:12;;;;;;;5.80;2.90;;;;;;;17.07;100.00;101652.06;5104178;27;20423;-59
2022/07/29 06:00:38;;;;;;;5.45;2.80;;;;;;;17.12;100.00;101649.72;5103298;27;20054;-59
2022/07/29 06:03:05;;;;;;;6.15;2.60;;;;;;;17.14;100.00;101655.66;5118479;27;20501;-55
2022/07/29 06:05:31;;;;;;;4.72;2.50;;;;;;;17.17;100.00;101646.53;5114212;27;20051;-59
2022/07/29 06:07:58;;;;;;;4.63;2.58;;;;;;;17.23;100.00;101656.50;5115857;27;20044;-59
2022/07/29 06:10:24;;;;;;;5.53;2.35;;;;;;;17.32;100.00;101658.09;5123515;27;20494;-59
2022/07/29 06:12:52;;;;;;;5.25;2.55;;;;;;;17.34;100.00;101647.31;5104969;27;20078;-60
2022/07/29 06:15:19;;;;;;;3.97;2.63;;;;;;;17.41;100.00;101644.84;5127588;27;20471;-59
2022/07/29 06:17:45;;;;;;;5.88;2.80;;;;;;;17.45;100.00;101640.84;5117512;27;20054;-58
2022/07/29 06:20:30;;;;;;;6.57;2.83;;;;;;;17.43;100.00;101637.53;5123827;27;20051;-61
2022/07/29 06:22:58;;;;;;;5.97;2.33;;;;;;;17.42;100.00;101639.34;5121574;27;20483;-60
2022/07/29 06:25:27;;;;;;;5.57;2.40;;;;;;;17.46;100.00;101643.28;5111944;27;20055;-60
2022/07/29 06:27:53;;;;;;;8.75;2.80;;;;;;;17.46;100.00;101651.25;5118913;27;20051;-60
2022/07/29 06:30:20;;;;;;;4.78;2.42;;;;;;;17.53;100.00;101646.94;5109249;27;20473;-57
2022/07/29 06:32:47;;;;;;;5.95;2.50;;;;;;;17.56;100.00;101643.09;5109380;27;20052;-62
2022/07/29 06:35:13;;;;;;;5.45;2.60;;;;;;;17.61;100.00;101651.38;5112830;27;20154;-59
2022/07/29 06:38:00;;;;;;;3.28;2.58;;;;;;;17.67;100.00;101636.59;5115078;27;20761;-60
2022/07/29 06:43:11;;;;;;;5.00;1.92;;;;;;;17.81;100.00;101635.84;5118912;27;20505;-59
2022/07/29 06:45:40;;;;;;;5.80;2.85;;;;;;;17.92;100.00;101635.50;5122377;27;20053;-60
2022/07/29 06:48:07;;;;;;;5.28;2.70;;;;;;;17.99;100.00;101643.56;5106505;27;20048;-59
2022/07/29 06:50:34;;;;;;;5.30;3.00;;;;;;;18.04;100.00;101641.22;5123151;27;20043;-60
2022/07/29 06:53:00;;;;;;;4.22;2.60;;;;;;;18.07;100.00;101632.94;5113471;27;20047;-59
2022/07/29 06:55:27;;;;;;;6.10;2.60;;;;;;;18.22;100.00;101640.13;5122731;27;20047;-61
2022/07/29 06:57:53;;;;;;;5.20;2.60;;;;;;;18.30;100.00;101637.41;5114656;27;20702;-60
2022/07/29 07:00:20;;;;;;;7.10;2.40;;;;;;;18.34;100.00;101636.84;5113186;27;20578;-59
2022/07/29 07:02:46;;;;;;;4.30;2.47;;;;;;;18.46;100.00;101644.41;5115972;27;20081;-60
2022/07/29 07:05:13;;;;;;;6.32;2.47;;;;;;;18.48;100.00;101629.13;5120546;27;20051;-59
2022/07/29 07:07:39;;;;;;;5.45;2.50;;;;;;;18.51;100.00;101636.75;5085395;27;20069;-58
2022/07/29 07:10:06;;;;;;;3.25;2.03;;;;;;;18.57;100.00;101636.84;5113105;27;20171;-60
2022/07/29 07:12:32;;;;;;;7.32;2.53;;;;;;;18.58;100.00;101638.50;5116781;27;20055;-60
2022/07/29 07:14:59;;;;;;;6.30;2.40;;;;;;;18.61;100.00;101634.66;5121441;27;20273;-60
2022/07/29 07:17:25;;;;;;;5.95;2.22;;;;;;;18.64;100.00;101634.31;5108013;27;20051;-59
2022/07/29 07:19:52;;;;;;;6.47;2.58;;;;;;;18.67;100.00;101641.91;5111479;27;20722;-61
2022/07/29 07:22:18;;;;;;;5.20;2.50;;;;;;;18.65;100.00;101646.56;5105851;27;20058;-61
2022/07/29 07:24:44;;;;;;;4.13;2.10;;;;;;;18.68;100.00;101645.38;5117921;27;20047;-61
2022/07/29 07:27:11;;;;;;;4.72;2.33;;;;;;;18.72;100.00;101644.84;5111062;27;20047;-60
2022/07/29 07:29:40;;;;;;;7.50;2.55;;;;;;;18.70;100.00;101638.91;5116209;27;20043;-61
2022/07/29 07:32:09;;;;;;;4.10;2.22;;;;;;;18.69;100.00;101641.72;5114851;27;20134;-61
2022/07/29 07:34:37;;;;;;;4.18;2.38;;;;;;;18.69;100.00;101639.88;5115996;27;20493;-60
2022/07/29 07:37:04;;;;;;;5.05;2.63;;;;;;;18.72;100.00;101644.84;5105343;27;20054;-60
2022/07/29 07:39:31;;;;;;;5.63;2.47;;;;;;;18.74;100.00;101637.53;5108983;27;20051;-61
2022/07/29 07:41:58;;;;;;;5.85;2.50;;;;;;;18.70;100.00;101640.72;5111362;27;20054;-60
2022/07/29 07:44:24;;;;;;;3.95;2.45;;;;;;;18.69;100.00;101649.69;5096451;27;20052;-60
2022/07/29 07:46:51;;;;;;;7.80;2.83;;;;;;;18.69;100.00;101657.69;5115156;27;20051;-59
2022/07/29 07:49:18;;;;;;;6.00;2.40;;;;;;;18.73;100.00;101646.50;5101997;27;20058;-59
2022/07/29 07:51:45;;;;;;;8.13;2.55;;;;;;;18.79;100.00;101658.25;5120533;27;20466;-59
2022/07/29 07:54:16;;;;;;;4.25;2.53;;;;;;;18.84;100.00;101657.75;5120538;27;20043;-57
2022/07/29 07:56:48;;;;;;;7.70;2.38;;;;;;;18.93;100.00;101656.63;5093716;28;20055;-59
2022/07/29 07:59:18;;;;;;;4.57;2.60;;;;;;;18.97;100.00;101647.28;5102639;27;20047;-60
2022/07/29 08:01:44;;;;;;;4.63;2.38;;;;;;;19.05;100.00;101646.38;5090747;27;20055;-58
2022/07/29 08:04:20;;;;;;;3.97;2.30;;;;;;;19.12;100.00;101644.66;5100174;27;20057;-60
2022/07/29 08:06:56;;;;;;;5.88;2.35;;;;;;;19.14;100.00;101647.97;5104161;27;20577;-60
2022/07/29 08:09:24;;;;;;;5.43;2.60;;;;;;;19.23;100.00;101646.03;5101544;28;20135;-60
2022/07/29 08:11:58;;;;;;;6.47;2.85;;;;;;;19.27;100.00;101653.47;5107617;27;20047;-60
2022/07/29 08:14:25;;;;;;;5.05;2.90;;;;;;;19.31;100.00;101643.28;5099085;27;20452;-60
2022/07/29 08:16:51;;;;;;;5.63;2.95;;;;;;;19.38;100.00;101648.69;5100928;27;20047;-60
2022/07/29 08:19:18;;;;;;;10.30;2.90;;;;;;;19.38;100.00;101644.19;5100386;27;20130;-60
2022/07/29 08:21:45;;;;;;;7.47;2.47;;;;;;;19.45;100.00;101642.44;5121905;27;20126;-60
2022/07/29 08:26:56;;;;;;;8.05;2.75;;;;;;;19.58;100.00;101644.44;5112750;27;20756;-61
2022/07/29 08:29:23;;;;;;;6.82;2.50;;;;;;;19.63;100.00;101647.38;5113625;27;20055;-60
2022/07/29 08:31:49;;;;;;;3.90;2.47;;;;;;;19.68;100.00;101646.81;5108023;28;20066;-61
2022/07/29 08:34:16;;;;;;;3.83;2.20;;;;;;;19.69;100.00;101648.47;5119908;28;20147;-61
2022/07/29 08:36:43;;;;;;;4.97;2.45;;;;;;;19.68;100.00;101652.97;5108414;28;20051;-60
2022/07/29 08:39:12;;;;;;;5.30;2.38;;;;;;;19.72;100.00;101656.13;5110240;28;20085;-58
2022/07/29 08:41:38;;;;;;;3.97;2.35;;;;;;;19.74;100.00;101662.09;5104383;28;20058;-60
2022/07/29 08:44:05;;;;;;;5.78;2.70;;;;;;;19.75;100.00;101666.38;5110638;28;20047;-61
2022/07/29 08:46:31;;;;;;;5.57;2.70;;;;;;;19.69;100.00;101673.25;5091321;28;20054;-60
2022/07/29 08:48:58;;;;;;;7.60;2.60;;;;;;;19.77;100.00;101663.53;5103776;28;20077;-60
2022/07/29 08:51:25;;;;;;;7.00;2.63;;;;;;;19.84;100.00;101673.25;5108985;28;20473;-60
2022/07/29 08:53:52;;;;;;;4.30;2.85;;;;;;;19.83;100.00;101673.44;5098462;27;20047;-61
2022/07/29 08:56:20;;;;;;;10.55;3.00;;;;;;;19.88;100.00;101677.19;5103461;28;20055;-60
2022/07/29 08:58:47;;;;;;;6.32;3.10;;;;;;;19.92;100.00;101675.00;5099464;28;20047;-61
2022/07/29 09:01:22;;;;;;;7.68;3.17;;;;;;;19.94;100.00;101673.78;5113063;28;20051;-61
2022/07/29 09:04:04;;;;;;;6.75;2.80;;;;;;;19.92;100.00;101686.47;5104441;28;20142;-60
2022/07/29 09:06:34;;;;;;;8.13;3.10;;;;;;;19.96;100.00;101684.25;5111921;27;20135;-60
2022/07/29 09:09:01;;;;;;;3.92;2.28;;;;;;;19.98;100.00;101692.88;5123180;27;20054;-60
2022/07/29 09:11:28;;;;;;;11.82;3.38;;;;;;;20.01;100.00;101691.66;5099403;28;20057;-60
2022/07/29 09:13:54;;;;;;;4.30;2.58;;;;;;;20.07;100.00;101691.75;5106160;28;20046;-60
2022/07/29 09:16:21;;;;;;;5.90;3.20;;;;;;;20.09;100.00;101691.53;5099853;28;20051;-60
2022/07/29 09:19:26;;;;;;;5.15;2.80;;;;;;;20.09;100.00;101683.56;5105624;28;20447;-60
2022/07/29 09:21:59;;;;;;;4.53;2.60;;;;;;;20.08;100.00;101684.59;5105785;27;20889;-59
2022/07/29 09:24:46;;;;;;;7.68;2.92;;;;;;;20.07;100.00;101681.09;5120305;27;20419;-59
2022/07/29 09:27:25;;;;;;;4.45;2.63;;;;;;;20.07;100.00;101672.25;5113404;27;20133;-61
2022/07/29 09:29:57;;;;;;;8.38;3.35;;;;;;;20.08;100.00;101668.59;5105285;28;20400;-61
2022/07/29 09:32:23;;;;;;;7.05;3.15;;;;;;;20.08;100.00;101672.09;5125366;27;20530;-61
2022/07/29 09:34:50;;;;;;;6.97;2.80;;;;;;;20.08;100.00;101668.59;5104266;27;20046;-60
2022/07/29 09:37:28;;;;;;;7.80;2.97;;;;;;;20.10;100.00;101678.03;5119465;27;20043;-60
2022/07/29 09:39:55;;;;;;;6.38;3.13;;;;;;;20.06;100.00;101678.63;5100710;27;20446;-59
2022/07/29 09:42:29;;;;;;;12.52;3.30;;;;;;;20.06;100.00;101676.78;5121839;27;20047;-58
2022/07/29 09:44:56;;;;;;;11.57;3.60;;;;;;;20.10;100.00;101687.88;5107358;27;20043;-60
2022/07/29 09:47:41;;;;;;;6.97;3.10;;;;;;;20.15;100.00;101690.81;5121793;27;20053;-59
2022/07/29 09:50:07;;;;;;;8.52;2.92;;;;;;;20.21;100.00;101687.41;5114292;27;20043;-60
2022/07/29 09:52:45;;;;;;;10.73;3.30;;;;;;;20.28;100.00;101687.44;5117093;27;20529;-61
2022/07/29 09:55:11;;;;;;;9.17;3.10;;;;;;;20.35;100.00;101685.69;5112217;27;20057;-60
2022/07/29 09:57:44;;;;;;;7.80;2.80;;;;;;;20.54;100.00;101687.72;5095086;27;20055;-60
2022/07/29 10:00:14;;;;;;;9.50;3.30;;;;;;;20.76;100.00;101684.22;5120007;27;20169;-59
2022/07/29 10:02:45;;;;;;;5.65;3.00;;;;;;;21.07;100.00;101683.81;5109693;27;20418;-60
2022/07/29 10:05:27;;;;;;;7.53;3.25;;;;;;;21.36;100.00;101682.78;5109643;27;20443;-60
2022/07/29 10:08:02;;;;;;;6.45;3.13;;;;;;;21.65;97.21;101678.22;5090736;28;20990;-61
2022/07/29 10:10:31;;;;;;;9.90;3.15;;;;;;;21.86;94.64;101675.44;5119110;27;20039;-60
2022/07/29 10:13:09;;;;;;;5.55;2.58;;;;;;;22.27;96.71;101679.88;5104813;27;20047;-61
2022/07/29 10:15:44;;;;;;;7.40;3.28;;;;;;;22.55;92.12;101676.19;5093038;27;20044;-59
2022/07/29 10:18:13;;;;;;;7.80;3.22;;;;;;;22.71;89.09;101678.44;5121611;27;20055;-58
2022/07/29 10:20:44;;;;;;;6.53;3.17;;;;;;;22.93;87.12;101680.91;5101329;27;20484;-60
2022/07/29 10:23:14;;;;;;;6.70;3.25;;;;;;;23.30;87.31;101675.94;5112517;27;20156;-60
2022/07/29 10:25:45;;;;;;;5.45;2.92;;;;;;;23.62;86.33;101674.19;5110407;27;20186;-61
2022/07/29 10:28:14;;;;;;;4.00;2.63;;;;;;;24.07;84.34;101670.66;5110315;27;20370;-60
2022/07/29 10:30:44;;;;;;;7.30;2.97;;;;;;;24.37;80.35;101660.16;5099512;27;20509;-61
2022/07/29 10:33:14;;;;;;;5.43;3.13;;;;;;;24.66;78.08;101671.31;5110988;27;20051;-58
2022/07/29 10:35:54;;;;;;;8.18;3.35;;;;;;;25.05;79.13;101670.13;5105165;27;20074;-60
2022/07/29 10:38:45;;;;;;;7.25;3.58;;;;;;;24.98;75.94;101665.84;5114662;27;20056;-60
2022/07/29 10:41:46;;;;;;;5.45;3.10;;;;;;;25.13;75.69;101671.69;5121578;27;20057;-61
2022/07/29 10:44:18;;;;;;;8.68;3.25;;;;;;;25.27;78.76;101672.41;5117939;27;20484;-58
2022/07/29 10:46:50;;;;;;;12.40;3.42;;;;;;;25.31;75.94;101676.28;5118638;27;20100;-58
2022/07/29 10:49:22;;;;;;;6.20;2.47;;;;;;;25.33;76.77;101676.06;5080951;27;20047;-60
2022/07/29 10:52:09;;;;;;;6.35;3.13;;;;;;;25.29;74.02;101667.63;5123838;27;20158;-60
2022/07/29 10:54:38;;;;;;;9.10;3.08;;;;;;;25.25;75.09;101675.28;5102060;27;20398;-60
2022/07/29 10:57:12;;;;;;;7.95;3.05;;;;;;;25.15;72.74;101674.13;5106392;27;20129;-60
2022/07/29 10:59:40;;;;;;;6.47;2.88;;;;;;;25.05;73.94;101675.47;5096042;27;20495;-60
2022/07/29 11:05:19;;;;;;;7.65;3.28;;;;;;;25.08;74.18;101676.06;5095621;27;20061;-60
2022/07/29 11:08:11;;;;;;;10.20;3.08;;;;;;;25.19;71.73;101678.84;5103555;27;20044;-59
2022/07/29 11:10:47;;;;;;;8.07;3.10;;;;;;;25.58;74.67;101679.47;5094580;27;20050;-58
2022/07/29 11:13:42;;;;;;;10.15;3.85;;;;;;;25.70;73.42;101671.47;5103747;27;20105;-60
2022/07/29 11:16:09;;;;;;;8.93;3.28;;;;;;;25.84;72.37;101675.59;5087857;27;20156;-59
2022/07/29 11:19:23;;;;;;;5.72;3.33;;;;;;;26.20;69.81;101671.16;5101320;27;20053;-61
2022/07/29 11:21:56;;;;;;;5.90;3.20;;;;;;;26.51;67.25;101674.63;5094929;28;20051;-60
2022/07/29 11:24:31;;;;;;;5.63;3.25;;;;;;;26.79;69.18;101665.88;5104688;27;20051;-60
2022/07/29 11:27:10;;;;;;;8.05;3.25;;;;;;;27.05;68.56;101668.31;5120179;27;20132;-60
2022/07/29 11:29:50;;;;;;;5.82;3.35;;;;;;;27.03;66.30;101661.31;5093446;27;20144;-60
2022/07/29 11:32:19;;;;;;;5.82;3.05;;;;;;;27.32;66.86;101666.78;5110011;27;20075;-61
2022/07/29 11:35:09;;;;;;;6.85;3.20;;;;;;;27.44;66.13;101658.66;5101860;27;20376;-62
2022/07/29 11:38:23;;;;;;;8.00;2.80;;;;;;;27.80;66.14;101648.59;5112496;27;20055;-61
2022/07/29 11:41:22;;;;;;;8.63;4.07;;;;;;;27.89;63.84;101651.72;5115503;27;20138;-61
2022/07/29 11:43:51;;;;;;;6.25;2.90;;;;;;;28.07;67.30;101656.09;5110671;27;20067;-60
2022/07/29 11:46:49;;;;;;;7.60;2.85;;;;;;;27.99;64.30;101649.22;5096366;27;20056;-61